メインページ
METAR-TAF:

METAR-TAF

空港 :

ムンバイ, インド

チャトラパティ・シヴァージー国際空港

緯度: 19-07N, 経度: 072-51E, 海抜: 8m

現時点の気象観測

当レポートは20分前の11:30(UTC)に作成
西の風 8kt、最大18ktの突風を伴う
気温 32°C
湿度 71%
気圧 1005 hPa
視程: 6000m
高度2000ftの雲はほとんどない

METAR: VABB 241130Z 27008G18KT 6000 FEW020 32/26 Q1005 NOSIG

時間: 17:20 (11:50 UTC)

予報

当レポートは50分前の11:00(UTC)に作成
予報は24日の 12時(UTC)から 25日の 18時(UTC)まで有効
西/北西の風 6kt
視程: 5000m
高度2000ftの雲はほとんどない
高度10000ftの雲は散在している
煙霧
24日の 13時(UTC)から 24日の 15時(UTC)まで徐々に
視程: 3000m
煙霧
24日の 22時(UTC)から 24日の 24時(UTC)まで徐々に
25日の 04時(UTC)から 25日の 06時(UTC)まで徐々に
西の風 7kt、最大17ktの突風を伴う
視程: 5000m
煙霧
25日の 13時(UTC)から 25日の 15時(UTC)まで徐々に
西の風 8kt
視程: 3000m
煙霧

TAF: VABB 241100Z 2412/2518 29006KT 5000 HZ FEW020 SCT100 BECMG 2413/2415 3000 HZ BECMG 2422/2424 000/00KT BECMG 2504/2506 28007G17KT 5000 HZ BECMG 2513/2515 27008KT 3000 HZ

4,000以上の空港の気象観測と天気予報(METAR報とTAF報)

利用可能な観測所は地図上に黄色い丸と赤い丸で示す。

丸の上にカーソルを重ねると観測所名を参照できる。

次にクリックすると気象観測と天気予報を参照できる。

マップの切り替え:黒色「×」印の緑ボタンをクリックして拡大、「-」印の緑ボタンをクリックして縮小、緑色の三角印をクリックして隣りの地図に切り替え


METAR-TAF: